sensor_id;sensor_type;location;lat;lon;timestamp;pressure;altitude;pressure_sealevel;temperature;humidity
27958;BME280;15295;42.658;23.374;2023-05-23T00:02:20;94471.09;;;17.40;62.99
27958;BME280;15295;42.658;23.374;2023-05-23T00:05:09;94437.09;;;17.18;63.08
27958;BME280;15295;42.658;23.374;2023-05-23T00:07:45;94459.81;;;17.34;63.10
27958;BME280;15295;42.658;23.374;2023-05-23T00:10:26;94445.03;;;17.28;62.63
27958;BME280;15295;42.658;23.374;2023-05-23T00:12:58;94478.16;;;17.41;62.80
27958;BME280;15295;42.658;23.374;2023-05-23T00:15:35;94464.59;;;17.34;62.96
27958;BME280;15295;42.658;23.374;2023-05-23T00:18:08;94445.59;;;17.11;62.96
27958;BME280;15295;42.658;23.374;2023-05-23T00:20:55;94499.72;;;17.46;62.73
27958;BME280;15295;42.658;23.374;2023-05-23T00:23:59;94491.75;;;17.48;62.45
27958;BME280;15295;42.658;23.374;2023-05-23T00:26:28;94473.31;;;17.32;62.22
27958;BME280;15295;42.658;23.374;2023-05-23T00:29:11;94441.50;;;17.15;62.29
27958;BME280;15295;42.658;23.374;2023-05-23T00:31:48;94491.31;;;17.37;62.24
27958;BME280;15295;42.658;23.374;2023-05-23T00:34:16;94468.78;;;17.26;62.47
27958;BME280;15295;42.658;23.374;2023-05-23T00:36:47;94430.03;;;17.04;62.27
27958;BME280;15295;42.658;23.374;2023-05-23T00:39:21;94418.44;;;16.96;62.42
27958;BME280;15295;42.658;23.374;2023-05-23T00:41:57;94475.66;;;17.34;62.23
27958;BME280;15295;42.658;23.374;2023-05-23T00:44:45;94441.94;;;17.14;61.87
27958;BME280;15295;42.658;23.374;2023-05-23T00:47:41;94468.91;;;17.22;62.01
27958;BME280;15295;42.658;23.374;2023-05-23T00:50:11;94436.44;;;16.88;61.60
27958;BME280;15295;42.658;23.374;2023-05-23T00:52:43;94461.94;;;17.05;61.84
27958;BME280;15295;42.658;23.374;2023-05-23T00:55:13;94480.84;;;17.19;61.86
27958;BME280;15295;42.658;23.374;2023-05-23T00:57:47;94476.97;;;17.17;62.06
27958;BME280;15295;42.658;23.374;2023-05-23T01:00:16;94460.63;;;17.10;61.75
27958;BME280;15295;42.658;23.374;2023-05-23T01:03:04;94443.47;;;16.89;61.54
27958;BME280;15295;42.658;23.374;2023-05-23T01:05:34;94449.91;;;16.86;61.44
27958;BME280;15295;42.658;23.374;2023-05-23T01:08:13;94458.84;;;16.90;61.25
27958;BME280;15295;42.658;23.374;2023-05-23T01:10:53;94431.09;;;16.69;61.54
27958;BME280;15295;42.658;23.374;2023-05-23T01:13:41;94488.34;;;17.06;61.56
27958;BME280;15295;42.658;23.374;2023-05-23T01:16:35;94486.00;;;17.05;61.26
27958;BME280;15295;42.658;23.374;2023-05-23T01:28:46;94447.53;;;16.72;61.12
27958;BME280;15295;42.658;23.374;2023-05-23T01:31:17;94490.66;;;16.95;61.04
27958;BME280;15295;42.658;23.374;2023-05-23T01:34:08;94494.94;;;16.96;61.27
27958;BME280;15295;42.658;23.374;2023-05-23T01:36:41;94492.50;;;16.98;60.90
27958;BME280;15295;42.658;23.374;2023-05-23T01:39:11;94459.47;;;16.69;60.93
27958;BME280;15295;42.658;23.374;2023-05-23T01:41:43;94482.44;;;16.91;61.13
27958;BME280;15295;42.658;23.374;2023-05-23T01:44:12;94480.13;;;16.90;61.14
27958;BME280;15295;42.658;23.374;2023-05-23T01:46:43;94457.72;;;16.75;61.03
27958;BME280;15295;42.658;23.374;2023-05-23T01:49:24;94461.13;;;16.79;60.88
27958;BME280;15295;42.658;23.374;2023-05-23T01:52:09;94476.19;;;16.91;60.88
27958;BME280;15295;42.658;23.374;2023-05-23T01:54:43;94479.34;;;16.89;60.58
27958;BME280;15295;42.658;23.374;2023-05-23T01:57:11;94435.19;;;16.64;60.71
27958;BME280;15295;42.658;23.374;2023-05-23T01:59:50;94426.31;;;16.44;61.42
27958;BME280;15295;42.658;23.374;2023-05-23T02:02:17;94471.72;;;16.81;61.57
27958;BME280;15295;42.658;23.374;2023-05-23T02:05:11;94455.72;;;16.63;61.34
27958;BME280;15295;42.658;23.374;2023-05-23T02:08:20;94477.38;;;16.77;61.18
27958;BME280;15295;42.658;23.374;2023-05-23T02:10:53;94454.16;;;16.62;60.99
27958;BME280;15295;42.658;23.374;2023-05-23T02:13:22;94437.47;;;16.53;60.91
27958;BME280;15295;42.658;23.374;2023-05-23T02:16:08;94480.25;;;16.74;60.90
27958;BME280;15295;42.658;23.374;2023-05-23T02:18:39;94466.31;;;16.65;60.96
27958;BME280;15295;42.658;23.374;2023-05-23T02:21:06;94478.16;;;16.78;61.27
27958;BME280;15295;42.658;23.374;2023-05-23T02:23:33;94477.69;;;16.79;61.14
27958;BME280;15295;42.658;23.374;2023-05-23T02:26:00;94442.22;;;16.53;60.97
27958;BME280;15295;42.658;23.374;2023-05-23T02:28:41;94459.34;;;16.60;60.97
27958;BME280;15295;42.658;23.374;2023-05-23T02:31:10;94458.69;;;16.56;61.00
27958;BME280;15295;42.658;23.374;2023-05-23T02:33:48;94444.72;;;16.47;61.31
27958;BME280;15295;42.658;23.374;2023-05-23T02:36:19;94430.66;;;16.29;60.57
27958;BME280;15295;42.658;23.374;2023-05-23T02:38:53;94463.84;;;16.54;60.67
27958;BME280;15295;42.658;23.374;2023-05-23T02:41:27;94473.53;;;16.46;59.99
27958;BME280;15295;42.658;23.374;2023-05-23T02:43:54;94465.97;;;16.34;59.91
27958;BME280;15295;42.658;23.374;2023-05-23T02:46:34;94416.41;;;15.89;59.70
27958;BME280;15295;42.658;23.374;2023-05-23T02:49:05;94457.75;;;16.18;60.06
27958;BME280;15295;42.658;23.374;2023-05-23T02:51:56;94443.22;;;15.73;60.01
27958;BME280;15295;42.658;23.374;2023-05-23T02:54:44;94461.06;;;15.68;60.76
27958;BME280;15295;42.658;23.374;2023-05-23T02:57:31;94431.28;;;15.47;61.23
27958;BME280;15295;42.658;23.374;2023-05-23T03:00:13;94433.53;;;15.52;60.93
27958;BME280;15295;42.658;23.374;2023-05-23T03:03:00;94461.22;;;15.77;60.84
27958;BME280;15295;42.658;23.374;2023-05-23T03:05:30;94442.28;;;15.63;60.69
27958;BME280;15295;42.658;23.374;2023-05-23T03:08:00;94424.31;;;15.59;60.42
27958;BME280;15295;42.658;23.374;2023-05-23T03:10:32;94417.25;;;15.41;60.37
27958;BME280;15295;42.658;23.374;2023-05-23T03:13:19;94442.41;;;15.43;60.68
27958;BME280;15295;42.658;23.374;2023-05-23T03:16:05;94440.28;;;15.31;60.87
27958;BME280;15295;42.658;23.374;2023-05-23T03:19:03;94425.84;;;15.11;60.99
27958;BME280;15295;42.658;23.374;2023-05-23T03:21:48;94448.91;;;15.33;61.02
27958;BME280;15295;42.658;23.374;2023-05-23T03:24:16;94433.00;;;15.09;61.09
27958;BME280;15295;42.658;23.374;2023-05-23T03:26:55;94467.66;;;15.38;60.65
27958;BME280;15295;42.658;23.374;2023-05-23T03:30:02;94463.00;;;15.35;60.72
27958;BME280;15295;42.658;23.374;2023-05-23T03:32:42;94470.50;;;15.19;61.05
27958;BME280;15295;42.658;23.374;2023-05-23T03:35:10;94472.94;;;15.33;60.47
27958;BME280;15295;42.658;23.374;2023-05-23T03:38:14;94478.84;;;15.31;60.86
27958;BME280;15295;42.658;23.374;2023-05-23T03:40:59;94448.66;;;15.12;60.59
27958;BME280;15295;42.658;23.374;2023-05-23T03:43:33;94436.78;;;14.99;60.85
27958;BME280;15295;42.658;23.374;2023-05-23T03:46:24;94466.38;;;15.27;60.68
27958;BME280;15295;42.658;23.374;2023-05-23T03:52:48;94477.66;;;15.49;60.36
27958;BME280;15295;42.658;23.374;2023-05-23T03:55:35;94465.97;;;15.44;60.57
27958;BME280;15295;42.658;23.374;2023-05-23T03:58:31;94491.13;;;15.63;60.90
27958;BME280;15295;42.658;23.374;2023-05-23T04:01:43;94496.53;;;15.66;60.63
27958;BME280;15295;42.658;23.374;2023-05-23T04:04:24;94493.25;;;15.71;60.50
27958;BME280;15295;42.658;23.374;2023-05-23T04:07:11;94463.91;;;15.65;60.73
27958;BME280;15295;42.658;23.374;2023-05-23T04:09:47;94495.81;;;15.94;60.29
27958;BME280;15295;42.658;23.374;2023-05-23T04:12:52;94484.25;;;15.99;60.62
27958;BME280;15295;42.658;23.374;2023-05-23T04:15:45;94483.88;;;16.13;59.98
27958;BME280;15295;42.658;23.374;2023-05-23T04:18:35;94468.47;;;16.00;59.54
27958;BME280;15295;42.658;23.374;2023-05-23T04:21:49;94479.66;;;16.09;59.45
27958;BME280;15295;42.658;23.374;2023-05-23T04:24:35;94491.88;;;16.24;59.36
27958;BME280;15295;42.658;23.374;2023-05-23T04:27:18;94482.94;;;16.04;59.11
27958;BME280;15295;42.658;23.374;2023-05-23T04:30:26;94484.09;;;16.19;59.08
27958;BME280;15295;42.658;23.374;2023-05-23T04:33:23;94503.03;;;16.33;59.21
27958;BME280;15295;42.658;23.374;2023-05-23T04:36:14;94488.03;;;16.34;58.79
27958;BME280;15295;42.658;23.374;2023-05-23T04:38:39;94468.25;;;16.23;58.78
27958;BME280;15295;42.658;23.374;2023-05-23T05:38:58;94482.38;;;17.20;59.67
27958;BME280;15295;42.658;23.374;2023-05-23T05:44:08;94475.19;;;17.23;59.79
27958;BME280;15295;42.658;23.374;2023-05-23T05:57:01;94484.53;;;18.22;59.37
27958;BME280;15295;42.658;23.374;2023-05-23T05:59:38;94515.75;;;18.79;59.08
27958;BME280;15295;42.658;23.374;2023-05-23T06:02:35;94506.50;;;18.73;57.59
27958;BME280;15295;42.658;23.374;2023-05-23T06:05:55;94523.03;;;19.07;58.10
27958;BME280;15295;42.658;23.374;2023-05-23T06:14:28;94541.75;;;19.55;56.61
27958;BME280;15295;42.658;23.374;2023-05-23T06:17:03;94482.41;;;19.13;56.50
27958;BME280;15295;42.658;23.374;2023-05-23T06:19:55;94544.84;;;19.57;56.29
27958;BME280;15295;42.658;23.374;2023-05-23T06:22:22;94489.28;;;19.30;56.87
27958;BME280;15295;42.658;23.374;2023-05-23T06:24:51;94526.19;;;19.88;56.90
27958;BME280;15295;42.658;23.374;2023-05-23T06:27:17;94530.59;;;20.26;56.45
27958;BME280;15295;42.658;23.374;2023-05-23T06:29:43;94546.19;;;20.50;55.66
27958;BME280;15295;42.658;23.374;2023-05-23T06:32:09;94518.56;;;20.47;54.41
27958;BME280;15295;42.658;23.374;2023-05-23T06:34:35;94502.69;;;20.47;54.69
27958;BME280;15295;42.658;23.374;2023-05-23T06:37:00;94534.31;;;20.68;53.51
27958;BME280;15295;42.658;23.374;2023-05-23T06:39:28;94516.75;;;20.53;53.81
27958;BME280;15295;42.658;23.374;2023-05-23T06:41:58;94544.78;;;21.00;54.58
27958;BME280;15295;42.658;23.374;2023-05-23T06:44:25;94533.66;;;21.27;53.44
27958;BME280;15295;42.658;23.374;2023-05-23T06:46:50;94524.09;;;21.19;52.64
27958;BME280;15295;42.658;23.374;2023-05-23T06:49:21;94542.09;;;21.42;52.74
27958;BME280;15295;42.658;23.374;2023-05-23T06:51:54;94514.47;;;21.38;51.96
27958;BME280;15295;42.658;23.374;2023-05-23T06:54:26;94528.44;;;21.62;51.79
27958;BME280;15295;42.658;23.374;2023-05-23T06:56:52;94511.59;;;21.66;50.89
27958;BME280;15295;42.658;23.374;2023-05-23T06:59:25;94524.28;;;21.99;50.18
27958;BME280;15295;42.658;23.374;2023-05-23T07:02:03;94522.13;;;21.94;49.71
27958;BME280;15295;42.658;23.374;2023-05-23T07:04:35;94533.69;;;22.02;49.61
27958;BME280;15295;42.658;23.374;2023-05-23T07:07:00;94502.19;;;21.96;49.80
27958;BME280;15295;42.658;23.374;2023-05-23T07:09:36;94488.66;;;22.12;49.58
27958;BME280;15295;42.658;23.374;2023-05-23T07:12:14;94535.16;;;22.68;49.37
27958;BME280;15295;42.658;23.374;2023-05-23T07:14:40;94520.59;;;22.88;48.52
27958;BME280;15295;42.658;23.374;2023-05-23T07:17:05;94474.38;;;22.81;48.22
27958;BME280;15295;42.658;23.374;2023-05-23T07:22:08;94495.81;;;23.19;47.08
27958;BME280;15295;42.658;23.374;2023-05-23T07:27:14;94480.16;;;23.51;46.41
27958;BME280;15295;42.658;23.374;2023-05-23T07:29:40;94497.59;;;23.81;46.06
27958;BME280;15295;42.658;23.374;2023-05-23T07:32:11;94475.09;;;23.84;45.70
27958;BME280;15295;42.658;23.374;2023-05-23T07:34:45;94501.38;;;24.12;45.65
27958;BME280;15295;42.658;23.374;2023-05-23T07:37:36;94460.88;;;24.02;44.69
27958;BME280;15295;42.658;23.374;2023-05-23T07:43:03;94490.94;;;24.47;43.79
27958;BME280;15295;42.658;23.374;2023-05-23T07:45:33;94490.25;;;24.52;44.26
27958;BME280;15295;42.658;23.374;2023-05-23T07:51:15;94489.84;;;24.80;43.87
27958;BME280;15295;42.658;23.374;2023-05-23T07:56:20;94501.28;;;24.82;43.66
27958;BME280;15295;42.658;23.374;2023-05-23T07:58:48;94475.59;;;24.78;43.58
27958;BME280;15295;42.658;23.374;2023-05-23T08:01:20;94488.81;;;25.03;43.32
27958;BME280;15295;42.658;23.374;2023-05-23T08:04:12;94496.59;;;25.19;42.92
27958;BME280;15295;42.658;23.374;2023-05-23T08:06:40;94487.34;;;25.07;43.84
27958;BME280;15295;42.658;23.374;2023-05-23T08:09:06;94462.59;;;25.00;43.26
27958;BME280;15295;42.658;23.374;2023-05-23T08:11:47;94481.09;;;25.44;43.08
27958;BME280;15295;42.658;23.374;2023-05-23T08:46:17;94463.72;;;27.20;39.02
27958;BME280;15295;42.658;23.374;2023-05-23T09:45:36;94458.66;;;27.52;31.70
27958;BME280;15295;42.658;23.374;2023-05-23T09:48:14;94433.13;;;27.33;31.54
27958;BME280;15295;42.658;23.374;2023-05-23T09:50:52;94424.66;;;27.16;29.97
27958;BME280;15295;42.658;23.374;2023-05-23T09:53:51;94418.81;;;27.20;30.34
27958;BME280;15295;42.658;23.374;2023-05-23T09:56:19;94413.22;;;27.20;30.82
27958;BME280;15295;42.658;23.374;2023-05-23T09:58:58;94394.84;;;27.30;31.41
27958;BME280;15295;42.658;23.374;2023-05-23T10:01:43;94424.69;;;27.72;29.26
27958;BME280;15295;42.658;23.374;2023-05-23T10:04:36;94402.00;;;27.53;28.77
27958;BME280;15295;42.658;23.374;2023-05-23T10:07:32;94409.38;;;27.73;29.32
27958;BME280;15295;42.658;23.374;2023-05-23T10:10:21;94390.53;;;27.45;29.79
27958;BME280;15295;42.658;23.374;2023-05-23T10:13:09;94387.97;;;27.59;28.50
27958;BME280;15295;42.658;23.374;2023-05-23T11:17:28;94392.78;;;29.47;25.63
27958;BME280;15295;42.658;23.374;2023-05-23T11:19:57;94379.63;;;29.55;24.91
27958;BME280;15295;42.658;23.374;2023-05-23T11:22:30;94372.59;;;29.67;23.80
27958;BME280;15295;42.658;23.374;2023-05-23T11:25:07;94393.59;;;30.20;24.03
27958;BME280;15295;42.658;23.374;2023-05-23T11:30:52;94388.09;;;30.33;23.91
27958;BME280;15295;42.658;23.374;2023-05-23T11:34:28;94369.13;;;30.33;23.98
27958;BME280;15295;42.658;23.374;2023-05-23T12:13:23;94337.75;;;29.70;25.16
27958;BME280;15295;42.658;23.374;2023-05-23T12:16:41;94337.50;;;29.44;24.72
27958;BME280;15295;42.658;23.374;2023-05-23T12:19:46;94330.31;;;29.43;25.03
27958;BME280;15295;42.658;23.374;2023-05-23T12:41:35;94274.25;;;28.85;24.68
27958;BME280;15295;42.658;23.374;2023-05-23T12:44:30;94317.81;;;29.09;25.03
27958;BME280;15295;42.658;23.374;2023-05-23T12:47:36;94309.94;;;28.66;24.78
27958;BME280;15295;42.658;23.374;2023-05-23T12:50:45;94312.84;;;28.90;25.22
27958;BME280;15295;42.658;23.374;2023-05-23T12:58:56;94279.88;;;28.91;23.26
27958;BME280;15295;42.658;23.374;2023-05-23T13:02:41;94301.25;;;29.35;23.32
27958;BME280;15295;42.658;23.374;2023-05-23T13:08:32;94278.72;;;29.59;22.38
27958;BME280;15295;42.658;23.374;2023-05-23T13:36:03;94260.63;;;29.79;21.78
27958;BME280;15295;42.658;23.374;2023-05-23T13:51:09;94274.16;;;29.80;21.67
27958;BME280;15295;42.658;23.374;2023-05-23T13:55:03;94267.69;;;29.61;22.00
27958;BME280;15295;42.658;23.374;2023-05-23T13:58:23;94287.25;;;29.78;21.52
27958;BME280;15295;42.658;23.374;2023-05-23T14:27:32;94243.78;;;29.25;20.52
27958;BME280;15295;42.658;23.374;2023-05-23T14:31:05;94278.38;;;29.68;19.98
27958;BME280;15295;42.658;23.374;2023-05-23T14:34:51;94274.84;;;29.62;19.61
27958;BME280;15295;42.658;23.374;2023-05-23T14:37:54;94257.13;;;29.43;19.42
27958;BME280;15295;42.658;23.374;2023-05-23T15:55:23;94224.56;;;28.64;20.15
27958;BME280;15295;42.658;23.374;2023-05-23T16:13:52;94238.00;;;27.95;21.24
27958;BME280;15295;42.658;23.374;2023-05-23T16:17:24;94250.47;;;28.10;20.67
27958;BME280;15295;42.658;23.374;2023-05-23T16:20:46;94210.22;;;27.86;21.13
27958;BME280;15295;42.658;23.374;2023-05-23T16:23:48;94239.28;;;27.99;21.52
27958;BME280;15295;42.658;23.374;2023-05-23T16:26:41;94258.16;;;28.04;22.27
27958;BME280;15295;42.658;23.374;2023-05-23T16:29:56;94257.44;;;27.98;22.76
27958;BME280;15295;42.658;23.374;2023-05-23T16:32:39;94210.06;;;27.62;22.97
27958;BME280;15295;42.658;23.374;2023-05-23T16:35:43;94244.94;;;27.83;23.04
27958;BME280;15295;42.658;23.374;2023-05-23T16:40:58;94238.09;;;27.73;22.68
27958;BME280;15295;42.658;23.374;2023-05-23T16:46:10;94232.25;;;27.65;22.98
27958;BME280;15295;42.658;23.374;2023-05-23T16:48:38;94254.44;;;27.74;23.63
27958;BME280;15295;42.658;23.374;2023-05-23T16:51:10;94274.56;;;27.84;23.63
27958;BME280;15295;42.658;23.374;2023-05-23T16:57:13;94226.97;;;27.45;23.78
27958;BME280;15295;42.658;23.374;2023-05-23T17:00:24;94222.41;;;27.25;24.16
27958;BME280;15295;42.658;23.374;2023-05-23T17:06:04;94258.38;;;27.43;23.99
27958;BME280;15295;42.658;23.374;2023-05-23T17:09:24;94282.06;;;27.48;24.36
27958;BME280;15295;42.658;23.374;2023-05-23T17:20:14;94215.84;;;26.90;24.74
27958;BME280;15295;42.658;23.374;2023-05-23T17:31:34;94246.94;;;26.47;25.09
27958;BME280;15295;42.658;23.374;2023-05-23T17:37:22;94258.88;;;26.26;25.45
27958;BME280;15295;42.658;23.374;2023-05-23T17:40:15;94288.16;;;26.41;25.40
27958;BME280;15295;42.658;23.374;2023-05-23T17:42:56;94220.06;;;25.91;25.80
27958;BME280;15295;42.658;23.374;2023-05-23T17:45:35;94259.28;;;26.02;26.09
27958;BME280;15295;42.658;23.374;2023-05-23T17:48:09;94237.59;;;25.86;26.26
27958;BME280;15295;42.658;23.374;2023-05-23T17:54:13;94291.66;;;26.09;26.47
27958;BME280;15295;42.658;23.374;2023-05-23T17:57:32;94245.16;;;25.63;26.60
27958;BME280;15295;42.658;23.374;2023-05-23T18:00:09;94272.94;;;25.72;26.86
27958;BME280;15295;42.658;23.374;2023-05-23T18:03:03;94271.63;;;25.68;27.06
27958;BME280;15295;42.658;23.374;2023-05-23T18:05:56;94260.38;;;25.51;27.29
27958;BME280;15295;42.658;23.374;2023-05-23T18:08:30;94274.63;;;25.53;27.23
27958;BME280;15295;42.658;23.374;2023-05-23T18:11:15;94284.25;;;25.47;27.48
27958;BME280;15295;42.658;23.374;2023-05-23T18:14:55;94258.41;;;25.26;27.52
27958;BME280;15295;42.658;23.374;2023-05-23T18:18:05;94303.50;;;25.39;27.64
27958;BME280;15295;42.658;23.374;2023-05-23T18:21:29;94273.53;;;25.03;28.42
27958;BME280;15295;42.658;23.374;2023-05-23T18:25:24;94331.09;;;25.20;28.84
27958;BME280;15295;42.658;23.374;2023-05-23T18:31:02;94287.94;;;24.65;29.06
27958;BME280;15295;42.658;23.374;2023-05-23T18:33:43;94304.25;;;24.72;29.33
27958;BME280;15295;42.658;23.374;2023-05-23T18:36:25;94346.34;;;24.88;29.45
27958;BME280;15295;42.658;23.374;2023-05-23T18:39:16;94310.19;;;24.53;29.62
27958;BME280;15295;42.658;23.374;2023-05-23T18:41:43;94335.00;;;24.72;29.74
27958;BME280;15295;42.658;23.374;2023-05-23T18:44:10;94344.13;;;24.72;29.99
27958;BME280;15295;42.658;23.374;2023-05-23T18:46:39;94352.03;;;24.74;29.94
27958;BME280;15295;42.658;23.374;2023-05-23T18:49:29;94358.06;;;24.67;31.10
27958;BME280;15295;42.658;23.374;2023-05-23T19:43:52;94436.69;;;23.15;35.57
27958;BME280;15295;42.658;23.374;2023-05-23T19:55:40;94414.69;;;22.73;36.08
27958;BME280;15295;42.658;23.374;2023-05-23T19:58:15;94422.31;;;22.49;35.82
27958;BME280;15295;42.658;23.374;2023-05-23T20:01:20;94415.22;;;22.48;36.05
27958;BME280;15295;42.658;23.374;2023-05-23T20:04:08;94425.22;;;22.55;36.25
27958;BME280;15295;42.658;23.374;2023-05-23T20:06:59;94441.44;;;22.56;36.60
27958;BME280;15295;42.658;23.374;2023-05-23T20:09:26;94420.56;;;22.37;36.53
27958;BME280;15295;42.658;23.374;2023-05-23T20:11:55;94433.91;;;22.33;36.63
27958;BME280;15295;42.658;23.374;2023-05-23T20:14:31;94401.88;;;22.14;36.27
27958;BME280;15295;42.658;23.374;2023-05-23T20:17:06;94418.59;;;22.14;36.77
27958;BME280;15295;42.658;23.374;2023-05-23T20:19:33;94400.06;;;22.11;36.59
27958;BME280;15295;42.658;23.374;2023-05-23T20:22:05;94409.00;;;22.15;36.58
27958;BME280;15295;42.658;23.374;2023-05-23T20:24:41;94399.72;;;21.94;36.84
27958;BME280;15295;42.658;23.374;2023-05-23T20:27:17;94425.81;;;21.97;36.94
27958;BME280;15295;42.658;23.374;2023-05-23T20:29:57;94426.34;;;21.86;37.11
27958;BME280;15295;42.658;23.374;2023-05-23T20:32:27;94429.63;;;21.85;37.22
27958;BME280;15295;42.658;23.374;2023-05-23T20:34:58;94409.09;;;21.73;37.43
27958;BME280;15295;42.658;23.374;2023-05-23T20:37:47;94441.66;;;21.82;37.74
27958;BME280;15295;42.658;23.374;2023-05-23T20:40:21;94390.09;;;21.48;37.97
27958;BME280;15295;42.658;23.374;2023-05-23T20:58:49;94412.53;;;21.44;38.90
27958;BME280;15295;42.658;23.374;2023-05-23T21:01:24;94447.34;;;21.64;39.28
27958;BME280;15295;42.658;23.374;2023-05-23T21:04:01;94399.94;;;21.25;39.32
27958;BME280;15295;42.658;23.374;2023-05-23T21:06:29;94395.63;;;21.24;39.18
27958;BME280;15295;42.658;23.374;2023-05-23T21:12:35;94443.25;;;21.41;39.91
27958;BME280;15295;42.658;23.374;2023-05-23T21:15:10;94439.28;;;21.33;40.02
27958;BME280;15295;42.658;23.374;2023-05-23T21:17:53;94387.38;;;20.97;39.66
27958;BME280;15295;42.658;23.374;2023-05-23T21:20:44;94444.66;;;21.36;39.90
27958;BME280;15295;42.658;23.374;2023-05-23T21:31:29;94436.13;;;21.07;40.57
27958;BME280;15295;42.658;23.374;2023-05-23T21:34:07;94442.59;;;21.04;40.50
27958;BME280;15295;42.658;23.374;2023-05-23T21:36:50;94433.72;;;20.82;40.08
27958;BME280;15295;42.658;23.374;2023-05-23T21:39:38;94460.81;;;20.96;40.67
27958;BME280;15295;42.658;23.374;2023-05-23T21:42:09;94407.34;;;20.59;40.53
27958;BME280;15295;42.658;23.374;2023-05-23T21:44:46;94470.41;;;20.95;41.01
27958;BME280;15295;42.658;23.374;2023-05-23T21:47:18;94451.91;;;20.83;40.73
27958;BME280;15295;42.658;23.374;2023-05-23T21:50:08;94451.34;;;20.61;40.46
27958;BME280;15295;42.658;23.374;2023-05-23T21:53:12;94457.84;;;20.40;40.80
27958;BME280;15295;42.658;23.374;2023-05-23T21:55:59;94401.53;;;19.94;41.46
27958;BME280;15295;42.658;23.374;2023-05-23T21:58:31;94445.16;;;20.12;41.30
27958;BME280;15295;42.658;23.374;2023-05-23T22:01:04;94450.06;;;19.98;41.58
27958;BME280;15295;42.658;23.374;2023-05-23T22:03:31;94423.84;;;19.72;41.68
27958;BME280;15295;42.658;23.374;2023-05-23T22:06:02;94414.28;;;19.64;41.82
27958;BME280;15295;42.658;23.374;2023-05-23T22:08:37;94436.16;;;19.71;42.22
27958;BME280;15295;42.658;23.374;2023-05-23T22:11:16;94453.09;;;19.82;42.47
27958;BME280;15295;42.658;23.374;2023-05-23T22:13:53;94448.19;;;19.77;42.11
27958;BME280;15295;42.658;23.374;2023-05-23T22:16:43;94469.44;;;19.71;42.83
27958;BME280;15295;42.658;23.374;2023-05-23T22:19:15;94417.78;;;19.07;43.73
27958;BME280;15295;42.658;23.374;2023-05-23T22:21:46;94456.69;;;19.34;43.53
27958;BME280;15295;42.658;23.374;2023-05-23T22:24:15;94433.50;;;19.19;43.84
27958;BME280;15295;42.658;23.374;2023-05-23T22:26:43;94432.09;;;19.14;43.58
27958;BME280;15295;42.658;23.374;2023-05-23T22:29:15;94421.47;;;19.13;44.03
27958;BME280;15295;42.658;23.374;2023-05-23T22:31:42;94441.22;;;19.24;44.07
27958;BME280;15295;42.658;23.374;2023-05-23T22:34:22;94461.94;;;19.41;44.25
27958;BME280;15295;42.658;23.374;2023-05-23T22:39:46;94414.22;;;19.06;44.50
27958;BME280;15295;42.658;23.374;2023-05-23T22:42:17;94462.84;;;19.38;44.26
27958;BME280;15295;42.658;23.374;2023-05-23T22:44:53;94457.31;;;19.38;44.61
27958;BME280;15295;42.658;23.374;2023-05-23T22:47:39;94458.34;;;19.32;45.05
27958;BME280;15295;42.658;23.374;2023-05-23T22:50:18;94434.13;;;19.23;45.30
27958;BME280;15295;42.658;23.374;2023-05-23T22:53:03;94435.72;;;19.33;45.15
27958;BME280;15295;42.658;23.374;2023-05-23T22:55:33;94456.41;;;19.41;45.42
27958;BME280;15295;42.658;23.374;2023-05-23T22:58:13;94399.00;;;19.11;45.37
27958;BME280;15295;42.658;23.374;2023-05-23T23:01:15;94448.13;;;19.50;45.28
27958;BME280;15295;42.658;23.374;2023-05-23T23:03:50;94447.00;;;19.39;45.50
27958;BME280;15295;42.658;23.374;2023-05-23T23:06:19;94392.97;;;19.03;45.66
27958;BME280;15295;42.658;23.374;2023-05-23T23:09:09;94445.31;;;19.41;45.74
27958;BME280;15295;42.658;23.374;2023-05-23T23:12:06;94395.31;;;19.14;45.59
27958;BME280;15295;42.658;23.374;2023-05-23T23:14:33;94422.63;;;19.34;45.76
27958;BME280;15295;42.658;23.374;2023-05-23T23:17:05;94392.22;;;19.12;45.99
27958;BME280;15295;42.658;23.374;2023-05-23T23:19:32;94428.31;;;19.30;46.69
27958;BME280;15295;42.658;23.374;2023-05-23T23:22:18;94382.19;;;18.96;46.90
27958;BME280;15295;42.658;23.374;2023-05-23T23:24:49;94394.34;;;18.99;46.63
27958;BME280;15295;42.658;23.374;2023-05-23T23:30:31;94407.28;;;19.02;46.67
27958;BME280;15295;42.658;23.374;2023-05-23T23:32:56;94411.59;;;19.03;46.82
27958;BME280;15295;42.658;23.374;2023-05-23T23:35:26;94416.16;;;18.97;47.37
27958;BME280;15295;42.658;23.374;2023-05-23T23:37:52;94386.06;;;18.68;47.56
27958;BME280;15295;42.658;23.374;2023-05-23T23:40:24;94413.69;;;18.90;47.55
27958;BME280;15295;42.658;23.374;2023-05-23T23:42:54;94414.78;;;18.92;47.58
27958;BME280;15295;42.658;23.374;2023-05-23T23:45:20;94427.13;;;19.00;47.36
27958;BME280;15295;42.658;23.374;2023-05-23T23:47:47;94409.25;;;18.92;47.48
27958;BME280;15295;42.658;23.374;2023-05-23T23:50:17;94366.03;;;18.64;47.59
27958;BME280;15295;42.658;23.374;2023-05-23T23:53:04;94363.28;;;18.64;47.93
27958;BME280;15295;42.658;23.374;2023-05-23T23:55:38;94360.63;;;18.61;48.16
